Time,TemperatureF,DewpointF,PressureIn,WindDirection,WindDirectionDegrees,WindSpeedMPH,WindSpeedGustMPH,Humidity,HourlyPrecipIn,Conditions,Clouds,dailyrainin,SolarRadiationWatts/m^2,SoftwareType,DateUTC
2013-06-12 00:03:00,69.1,65.7,28.96,SSE,167,6.0,-999.0,89,0.00,,,0.00,0,WeatherHawk,2013-06-12 05:03:00,
2013-06-12 00:12:00,69.5,65.5,28.95,ESE,113,3.0,-999.0,87,0.00,,,0.00,0,WeatherHawk,2013-06-12 05:12:00,
2013-06-12 00:17:00,69.3,65.3,28.99,SW,221,4.0,-999.0,87,0.00,,,0.00,0,WeatherHawk,2013-06-12 05:17:00,
2013-06-12 00:22:00,69.5,65.5,28.98,SSW,210,6.0,-999.0,87,0.00,,,0.00,0,WeatherHawk,2013-06-12 05:22:00,
2013-06-12 00:27:00,69.4,66.0,28.99,SW,217,6.0,-999.0,89,0.00,,,0.00,0,WeatherHawk,2013-06-12 05:27:00,
2013-06-12 00:32:00,67.9,65.2,29.00,WSW,254,5.0,-999.0,91,0.00,,,0.00,1,WeatherHawk,2013-06-12 05:32:00,
2013-06-12 00:37:00,69.0,66.3,29.00,SW,225,2.0,-999.0,91,0.00,,,0.00,0,WeatherHawk,2013-06-12 05:37:00,
2013-06-12 00:42:00,68.4,65.6,29.00,WNW,295,3.0,-999.0,91,0.00,,,0.00,0,WeatherHawk,2013-06-12 05:42:00,
2013-06-12 00:47:00,68.1,65.4,29.00,West,277,4.0,-999.0,91,0.00,,,0.00,0,WeatherHawk,2013-06-12 05:47:00,
2013-06-12 00:52:00,68.6,66.2,29.00,NW,321,4.0,-999.0,92,0.00,,,0.00,0,WeatherHawk,2013-06-12 05:52:00,
2013-06-12 00:57:00,68.8,65.8,29.00,NW,320,2.0,-999.0,90,0.00,,,0.00,0,WeatherHawk,2013-06-12 05:57:00,
2013-06-12 01:02:00,68.8,65.7,28.99,East,89,3.0,-999.0,90,0.00,,,0.00,0,WeatherHawk,2013-06-12 06:02:00,
2013-06-12 01:07:00,68.4,66.0,28.98,ESE,113,5.0,-999.0,92,0.00,,,0.00,0,WeatherHawk,2013-06-12 06:07:00,
2013-06-12 01:12:00,67.8,66.3,28.96,ESE,104,7.0,-999.0,95,0.00,,,0.00,0,WeatherHawk,2013-06-12 06:12:00,
2013-06-12 01:17:00,67.4,66.5,28.94,East,99,9.0,-999.0,97,0.00,,,0.00,0,WeatherHawk,2013-06-12 06:17:00,
2013-06-12 01:22:00,68.4,67.5,28.93,East,100,14.0,-999.0,97,0.00,,,0.00,0,WeatherHawk,2013-06-12 06:22:00,
2013-06-12 01:27:00,69.0,66.9,28.90,SE,142,12.0,-999.0,93,0.00,,,0.00,0,WeatherHawk,2013-06-12 06:27:00,
2013-06-12 01:32:00,69.2,66.2,28.93,NNE,22,1.0,-999.0,90,0.00,,,0.00,0,WeatherHawk,2013-06-12 06:32:00,
2013-06-12 01:37:00,68.8,66.4,28.95,NNW,331,6.0,-999.0,92,0.00,,,0.00,0,WeatherHawk,2013-06-12 06:37:00,
2013-06-12 01:42:00,68.6,66.4,28.95,NNW,328,6.0,-999.0,93,0.00,,,0.00,0,WeatherHawk,2013-06-12 06:42:00,
2013-06-12 01:47:00,68.2,66.1,28.96,WNW,299,5.0,-999.0,93,0.00,,,0.00,0,WeatherHawk,2013-06-12 06:47:00,
2013-06-12 01:52:00,68.1,66.3,28.96,NW,317,4.0,-999.0,94,0.00,,,0.00,0,WeatherHawk,2013-06-12 06:52:00,
2013-06-12 01:57:00,68.2,66.1,28.96,WNW,297,0.0,-999.0,93,0.00,,,0.00,0,WeatherHawk,2013-06-12 06:57:00,
2013-06-12 02:02:00,67.2,65.4,28.96,WSW,241,0.0,-999.0,94,0.00,,,0.00,0,WeatherHawk,2013-06-12 07:02:00,
2013-06-12 02:07:00,67.5,66.1,28.97,WSW,241,0.0,-999.0,95,0.00,,,0.00,0,WeatherHawk,2013-06-12 07:07:00,
2013-06-12 02:12:00,67.0,65.9,28.97,WSW,251,0.0,-999.0,96,0.00,,,0.00,0,WeatherHawk,2013-06-12 07:12:00,
2013-06-12 02:17:00,66.8,65.9,28.97,WNW,283,2.0,-999.0,97,0.00,,,0.00,0,WeatherHawk,2013-06-12 07:17:00,
2013-06-12 02:22:00,67.6,67.0,28.98,WNW,291,4.0,-999.0,98,0.00,,,0.00,0,WeatherHawk,2013-06-12 07:22:00,
2013-06-12 02:27:00,67.1,66.2,28.99,NNW,329,7.0,-999.0,97,0.00,,,0.00,0,WeatherHawk,2013-06-12 07:27:00,
2013-06-12 02:32:00,67.2,66.3,28.98,West,279,2.0,-999.0,97,0.00,,,0.00,0,WeatherHawk,2013-06-12 07:32:00,
2013-06-12 02:37:00,67.4,66.5,28.99,WSW,257,1.0,-999.0,97,0.00,,,0.00,0,WeatherHawk,2013-06-12 07:37:00,
2013-06-12 02:42:00,67.1,66.2,28.99,WSW,253,0.0,-999.0,97,0.00,,,0.00,0,WeatherHawk,2013-06-12 07:42:00,
2013-06-12 02:47:00,67.0,66.1,29.00,West,270,2.0,-999.0,97,0.00,,,0.00,0,WeatherHawk,2013-06-12 07:47:00,
2013-06-12 02:52:00,67.5,66.9,29.00,West,269,1.0,-999.0,98,0.00,,,0.00,0,WeatherHawk,2013-06-12 07:52:00,
2013-06-12 02:57:00,67.0,66.1,28.99,WSW,252,0.0,-999.0,97,0.00,,,0.00,0,WeatherHawk,2013-06-12 07:57:00,
2013-06-12 03:02:00,67.2,66.3,29.00,SSW,211,0.0,-999.0,97,0.00,,,0.00,0,WeatherHawk,2013-06-12 08:02:00,
2013-06-12 03:07:00,67.2,66.1,29.01,West,273,2.0,-999.0,96,0.00,,,0.00,0,WeatherHawk,2013-06-12 08:07:00,
2013-06-12 03:12:00,67.6,66.4,29.00,NNW,333,2.0,-999.0,96,0.00,,,0.00,0,WeatherHawk,2013-06-12 08:12:00,
2013-06-12 03:17:00,67.9,66.1,29.00,North,349,3.0,-999.0,94,0.00,,,0.00,0,WeatherHawk,2013-06-12 08:17:00,
2013-06-12 03:22:00,67.9,65.8,28.98,North,0,1.0,-999.0,93,0.00,,,0.00,0,WeatherHawk,2013-06-12 08:22:00,
2013-06-12 03:27:00,67.9,65.2,28.98,North,2,4.0,-999.0,91,0.00,,,0.00,0,WeatherHawk,2013-06-12 08:27:00,
2013-06-12 03:32:00,67.9,64.8,28.98,NNE,17,3.0,-999.0,90,0.00,,,0.00,0,WeatherHawk,2013-06-12 08:32:00,
2013-06-12 03:37:00,67.7,65.0,28.97,North,8,0.0,-999.0,91,0.00,,,0.00,0,WeatherHawk,2013-06-12 08:37:00,
2013-06-12 03:42:00,68.3,65.2,28.96,West,260,2.0,-999.0,90,0.00,,,0.00,0,WeatherHawk,2013-06-12 08:42:00,
2013-06-12 03:47:00,68.8,64.4,28.95,ENE,65,3.0,-999.0,86,0.00,,,0.00,0,WeatherHawk,2013-06-12 08:47:00,
2013-06-12 03:52:00,68.8,64.1,28.96,ENE,58,4.0,-999.0,85,0.00,,,0.00,0,WeatherHawk,2013-06-12 08:52:00,
2013-06-12 03:57:00,69.3,63.5,28.97,North,2,3.0,-999.0,82,0.00,,,0.00,0,WeatherHawk,2013-06-12 08:57:00,
2013-06-12 04:02:00,69.0,62.9,28.97,NE,45,4.0,-999.0,81,0.00,,,0.00,0,WeatherHawk,2013-06-12 09:02:00,
2013-06-12 04:07:00,69.0,62.9,28.97,North,10,4.0,-999.0,81,0.00,,,0.00,0,WeatherHawk,2013-06-12 09:07:00,
2013-06-12 04:12:00,68.9,62.5,28.95,East,79,3.0,-999.0,80,0.00,,,0.00,0,WeatherHawk,2013-06-12 09:12:00,
2013-06-12 04:17:00,68.7,62.6,28.95,ENE,69,4.0,-999.0,81,0.00,,,0.00,0,WeatherHawk,2013-06-12 09:17:00,
2013-06-12 04:22:00,68.5,62.4,28.95,ENE,64,3.0,-999.0,81,0.00,,,0.00,0,WeatherHawk,2013-06-12 09:22:00,
2013-06-12 04:27:00,68.6,62.5,28.94,ENE,68,6.0,-999.0,81,0.00,,,0.00,0,WeatherHawk,2013-06-12 09:27:00,
2013-06-12 04:32:00,68.1,62.0,28.93,East,87,7.0,-999.0,81,0.00,,,0.00,0,WeatherHawk,2013-06-12 09:32:00,
2013-06-12 04:37:00,67.7,62.0,28.92,ESE,119,8.0,-999.0,82,0.00,,,0.00,0,WeatherHawk,2013-06-12 09:37:00,
2013-06-12 04:42:00,67.2,62.8,28.93,SE,124,6.0,-999.0,86,0.00,,,0.00,0,WeatherHawk,2013-06-12 09:42:00,
2013-06-12 04:47:00,66.9,62.9,28.93,East,98,2.0,-999.0,87,0.00,,,0.00,0,WeatherHawk,2013-06-12 09:47:00,
2013-06-12 04:52:00,67.1,63.1,28.94,NNW,332,5.0,-999.0,87,0.00,,,0.00,0,WeatherHawk,2013-06-12 09:52:00,
2013-06-12 04:57:00,67.4,63.4,28.93,NW,323,2.0,-999.0,87,0.00,,,0.00,0,WeatherHawk,2013-06-12 09:57:00,
2013-06-12 05:02:00,67.4,63.4,28.93,North,349,0.0,-999.0,87,0.00,,,0.00,1,WeatherHawk,2013-06-12 10:02:00,
2013-06-12 05:07:00,67.3,62.6,28.93,SE,126,0.0,-999.0,85,0.00,,,0.00,0,WeatherHawk,2013-06-12 10:07:00,
2013-06-12 05:12:00,67.9,63.9,28.95,SSW,197,6.0,-999.0,87,0.00,,,0.00,1,WeatherHawk,2013-06-12 10:12:00,
2013-06-12 05:17:00,67.7,63.0,28.96,SW,219,7.0,-999.0,85,0.00,,,0.00,1,WeatherHawk,2013-06-12 10:17:00,
2013-06-12 05:22:00,66.9,62.9,28.96,South,187,6.0,-999.0,87,0.00,,,0.00,2,WeatherHawk,2013-06-12 10:22:00,
2013-06-12 05:27:00,66.7,62.7,28.96,East,98,0.0,-999.0,87,0.00,,,0.00,3,WeatherHawk,2013-06-12 10:27:00,
2013-06-12 05:32:00,67.1,63.1,28.95,SW,226,5.0,-999.0,87,0.00,,,0.00,5,WeatherHawk,2013-06-12 10:32:00,
2013-06-12 05:37:00,67.3,62.6,28.96,SSW,195,6.0,-999.0,85,0.00,,,0.00,7,WeatherHawk,2013-06-12 10:37:00,
2013-06-12 05:42:00,66.9,62.3,28.95,SW,219,0.0,-999.0,85,0.00,,,0.00,7,WeatherHawk,2013-06-12 10:42:00,
2013-06-12 05:47:00,65.8,62.1,28.97,WSW,242,3.0,-999.0,88,0.00,,,0.00,9,WeatherHawk,2013-06-12 10:47:00,
2013-06-12 05:52:00,68.4,63.7,28.97,South,176,6.0,-999.0,85,0.00,,,0.00,7,WeatherHawk,2013-06-12 10:52:00,
2013-06-12 05:57:00,66.3,61.3,28.96,ESE,104,5.0,-999.0,84,0.00,,,0.00,7,WeatherHawk,2013-06-12 10:57:00,
2013-06-12 06:02:00,66.9,62.9,28.95,North,11,4.0,-999.0,87,0.00,,,0.00,8,WeatherHawk,2013-06-12 11:02:00,
2013-06-12 06:07:00,67.0,63.0,28.96,North,0,5.0,-999.0,87,0.00,,,0.00,10,WeatherHawk,2013-06-12 11:07:00,
2013-06-12 06:12:00,66.6,63.0,28.98,SW,230,3.0,-999.0,88,0.00,,,0.00,9,WeatherHawk,2013-06-12 11:12:00,
2013-06-12 06:17:00,67.1,63.1,28.97,ESE,122,6.0,-999.0,87,0.00,,,0.00,10,WeatherHawk,2013-06-12 11:17:00,
2013-06-12 06:22:00,66.5,62.9,28.99,SSW,205,0.0,-999.0,88,0.00,,,0.00,11,WeatherHawk,2013-06-12 11:22:00,
2013-06-12 06:27:00,68.1,64.1,28.99,SSW,205,3.0,-999.0,87,0.00,,,0.00,8,WeatherHawk,2013-06-12 11:27:00,
2013-06-12 06:32:00,68.1,62.1,28.97,East,97,3.0,-999.0,81,0.00,,,0.00,16,WeatherHawk,2013-06-12 11:32:00,
2013-06-12 06:37:00,67.7,62.3,28.98,NE,52,2.0,-999.0,83,0.00,,,0.00,16,WeatherHawk,2013-06-12 11:37:00,
2013-06-12 06:42:00,68.6,62.6,28.94,ENE,75,8.0,-999.0,81,0.00,,,0.00,18,WeatherHawk,2013-06-12 11:42:00,
2013-06-12 06:47:00,67.6,61.9,28.96,SSE,166,7.0,-999.0,82,0.00,,,0.00,19,WeatherHawk,2013-06-12 11:47:00,
2013-06-12 06:52:00,69.1,61.3,28.97,SSE,149,13.0,-999.0,76,0.00,,,0.00,20,WeatherHawk,2013-06-12 11:52:00,
2013-06-12 06:57:00,69.3,61.0,28.98,WSW,238,6.0,-999.0,75,0.00,,,0.00,20,WeatherHawk,2013-06-12 11:57:00,
2013-06-12 07:02:00,69.6,62.0,28.99,NNW,345,5.0,-999.0,77,0.00,,,0.00,19,WeatherHawk,2013-06-12 12:02:00,
2013-06-12 07:07:00,67.5,61.5,28.99,North,350,7.0,-999.0,81,0.00,,,0.00,22,WeatherHawk,2013-06-12 12:07:00,
2013-06-12 07:12:00,67.8,61.7,28.99,North,10,3.0,-999.0,81,0.00,,,0.00,24,WeatherHawk,2013-06-12 12:12:00,
2013-06-12 07:17:00,67.9,62.6,28.99,NW,317,0.0,-999.0,83,0.00,,,0.00,17,WeatherHawk,2013-06-12 12:17:00,
2013-06-12 07:22:00,68.1,62.4,28.99,East,81,5.0,-999.0,82,0.00,,,0.00,21,WeatherHawk,2013-06-12 12:22:00,
2013-06-12 07:27:00,67.0,62.4,28.97,East,87,4.0,-999.0,85,0.00,,,0.00,14,WeatherHawk,2013-06-12 12:27:00,
2013-06-12 07:32:00,67.6,63.3,28.98,West,278,0.0,-999.0,86,0.00,,,0.00,12,WeatherHawk,2013-06-12 12:32:00,
2013-06-12 07:37:00,67.3,63.6,28.97,SE,134,2.0,-999.0,88,0.00,,,0.00,9,WeatherHawk,2013-06-12 12:37:00,
2013-06-12 07:42:00,67.3,64.2,28.98,ESE,119,6.0,-999.0,90,0.00,,,0.00,8,WeatherHawk,2013-06-12 12:42:00,
2013-06-12 07:47:00,66.9,64.2,28.98,WSW,243,0.0,-999.0,91,0.00,,,0.00,7,WeatherHawk,2013-06-12 12:47:00,
2013-06-12 07:57:00,66.1,65.0,28.98,NW,320,4.0,-999.0,96,0.00,,,0.00,7,WeatherHawk,2013-06-12 12:57:00,
2013-06-12 08:02:00,65.6,64.4,28.97,South,182,4.0,-999.0,96,0.00,,,0.00,10,WeatherHawk,2013-06-12 13:02:00,
2013-06-12 08:07:00,65.7,65.1,28.97,SE,139,2.0,-999.0,98,0.00,,,0.00,9,WeatherHawk,2013-06-12 13:07:00,
2013-06-12 08:12:00,67.3,65.2,28.97,SW,230,7.0,-999.0,93,0.00,,,0.00,10,WeatherHawk,2013-06-12 13:12:00,
2013-06-12 08:17:00,67.0,65.0,28.98,WNW,292,1.0,-999.0,93,0.00,,,0.00,12,WeatherHawk,2013-06-12 13:17:00,
2013-06-12 08:22:00,66.5,64.7,28.97,NNW,337,4.0,-999.0,94,0.00,,,0.00,13,WeatherHawk,2013-06-12 13:22:00,
2013-06-12 08:27:00,66.3,65.1,28.95,ENE,77,3.0,-999.0,96,0.04,,,0.04,12,WeatherHawk,2013-06-12 13:27:00,
2013-06-12 08:32:00,67.4,65.6,28.94,ENE,72,4.0,-999.0,94,0.04,,,0.04,13,WeatherHawk,2013-06-12 13:32:00,
2013-06-12 08:37:00,65.9,64.5,28.92,ENE,68,4.0,-999.0,95,0.00,,,0.04,14,WeatherHawk,2013-06-12 13:37:00,
2013-06-12 08:42:00,65.6,64.8,28.86,ENE,76,11.0,-999.0,97,0.00,,,0.04,18,WeatherHawk,2013-06-12 13:42:00,
2013-06-12 08:47:00,64.7,64.7,28.79,ENE,66,16.0,-999.0,100,0.00,,,0.04,35,WeatherHawk,2013-06-12 13:47:00,
2013-06-12 08:57:00,67.4,67.1,28.87,SE,129,14.0,-999.0,99,0.00,,,0.04,99,WeatherHawk,2013-06-12 13:57:00,
2013-06-12 09:02:00,67.5,65.4,28.86,SSE,151,15.0,-999.0,93,0.00,,,0.04,138,WeatherHawk,2013-06-12 14:02:00,
2013-06-12 09:07:00,67.6,65.2,28.84,East,94,11.0,-999.0,92,0.00,,,0.04,177,WeatherHawk,2013-06-12 14:07:00,
2013-06-12 09:12:00,67.6,65.2,28.84,ENE,74,7.0,-999.0,92,0.00,,,0.04,222,WeatherHawk,2013-06-12 14:12:00,
2013-06-12 09:17:00,68.0,64.9,28.84,NE,54,5.0,-999.0,90,0.00,,,0.04,240,WeatherHawk,2013-06-12 14:17:00,
2013-06-12 09:22:00,68.4,65.3,28.84,NE,34,0.0,-999.0,90,0.00,,,0.04,210,WeatherHawk,2013-06-12 14:22:00,
2013-06-12 09:27:00,68.0,65.0,28.84,ENE,59,2.0,-999.0,90,0.00,,,0.04,147,WeatherHawk,2013-06-12 14:27:00,
2013-06-12 09:32:00,68.1,65.0,28.84,North,0,0.0,-999.0,90,0.00,,,0.04,157,WeatherHawk,2013-06-12 14:32:00,
2013-06-12 09:37:00,68.4,64.7,28.85,NNW,345,6.0,-999.0,88,0.00,,,0.04,196,WeatherHawk,2013-06-12 14:37:00,
2013-06-12 09:42:00,67.9,64.9,28.86,NW,311,4.0,-999.0,90,0.00,,,0.04,197,WeatherHawk,2013-06-12 14:42:00,
2013-06-12 09:47:00,67.9,65.8,28.87,North,1,8.0,-999.0,93,0.00,,,0.04,191,WeatherHawk,2013-06-12 14:47:00,
2013-06-12 09:52:00,67.8,65.7,28.88,NW,307,8.0,-999.0,93,0.00,,,0.04,203,WeatherHawk,2013-06-12 14:52:00,
2013-06-12 09:57:00,67.7,65.0,28.87,NNW,342,7.0,-999.0,91,0.00,,,0.04,281,WeatherHawk,2013-06-12 14:57:00,
2013-06-12 10:02:00,68.4,65.7,28.87,NE,38,4.0,-999.0,91,0.00,,,0.04,300,WeatherHawk,2013-06-12 15:02:00,
2013-06-12 10:07:00,68.0,64.0,28.87,NNW,348,9.0,-999.0,87,0.00,,,0.04,469,WeatherHawk,2013-06-12 15:07:00,
2013-06-12 10:12:00,69.0,64.9,28.87,NNW,333,6.0,-999.0,87,0.00,,,0.04,462,WeatherHawk,2013-06-12 15:12:00,
2013-06-12 10:17:00,69.1,64.0,28.87,North,9,10.0,-999.0,84,0.00,,,0.04,491,WeatherHawk,2013-06-12 15:17:00,
2013-06-12 10:22:00,69.4,65.0,28.87,NNW,344,5.0,-999.0,86,0.00,,,0.04,442,WeatherHawk,2013-06-12 15:22:00,
2013-06-12 10:27:00,69.5,64.8,28.87,North,0,7.0,-999.0,85,0.00,,,0.04,449,WeatherHawk,2013-06-12 15:27:00,
2013-06-12 10:32:00,69.4,63.6,28.88,NNE,17,6.0,-999.0,82,0.00,,,0.04,412,WeatherHawk,2013-06-12 15:32:00,
2013-06-12 10:37:00,70.0,64.6,28.88,ENE,62,1.0,-999.0,83,0.00,,,0.04,375,WeatherHawk,2013-06-12 15:37:00,
2013-06-12 10:42:00,70.2,64.4,28.88,NE,40,1.0,-999.0,82,0.00,,,0.04,342,WeatherHawk,2013-06-12 15:42:00,
2013-06-12 10:47:00,68.8,63.1,28.89,NNE,23,2.0,-999.0,82,0.00,,,0.04,259,WeatherHawk,2013-06-12 15:47:00,
2013-06-12 10:52:00,69.7,64.0,28.89,NW,311,5.0,-999.0,82,0.00,,,0.04,459,WeatherHawk,2013-06-12 15:52:00,
2013-06-12 10:57:00,70.1,64.0,28.89,NNE,25,1.0,-999.0,81,0.00,,,0.04,311,WeatherHawk,2013-06-12 15:57:00,
2013-06-12 11:02:00,69.3,63.2,28.89,ENE,65,3.0,-999.0,81,0.00,,,0.04,269,WeatherHawk,2013-06-12 16:02:00,
2013-06-12 11:07:00,70.0,64.3,28.91,East,88,0.0,-999.0,82,0.00,,,0.04,239,WeatherHawk,2013-06-12 16:07:00,
2013-06-12 11:12:00,70.6,64.1,28.92,NNE,26,1.0,-999.0,80,0.00,,,0.04,339,WeatherHawk,2013-06-12 16:12:00,
2013-06-12 11:17:00,71.3,64.8,28.92,NNE,24,1.0,-999.0,80,0.00,,,0.04,347,WeatherHawk,2013-06-12 16:17:00,
2013-06-12 11:22:00,70.8,64.0,28.92,East,90,3.0,-999.0,79,0.00,,,0.04,390,WeatherHawk,2013-06-12 16:22:00,
2013-06-12 11:27:00,71.3,63.3,28.92,North,0,2.0,-999.0,76,0.00,,,0.04,450,WeatherHawk,2013-06-12 16:27:00,
2013-06-12 11:32:00,71.5,63.1,28.91,NNE,15,4.0,-999.0,75,0.00,,,0.04,349,WeatherHawk,2013-06-12 16:32:00,
2013-06-12 11:37:00,72.8,64.0,28.91,ENE,64,0.0,-999.0,74,0.00,,,0.04,464,WeatherHawk,2013-06-12 16:37:00,
2013-06-12 11:42:00,70.6,60.3,28.91,East,79,4.0,-999.0,70,0.00,,,0.04,364,WeatherHawk,2013-06-12 16:42:00,
2013-06-12 11:47:00,71.7,61.8,28.91,NE,49,3.0,-999.0,71,0.00,,,0.04,406,WeatherHawk,2013-06-12 16:47:00,
2013-06-12 11:52:00,72.9,62.9,28.91,NNE,23,1.0,-999.0,71,0.00,,,0.04,498,WeatherHawk,2013-06-12 16:52:00,
2013-06-12 11:57:00,73.3,62.5,28.91,NE,51,3.0,-999.0,69,0.00,,,0.04,487,WeatherHawk,2013-06-12 16:57:00,
2013-06-12 12:02:00,71.3,59.7,28.93,ENE,77,3.0,-999.0,67,0.00,,,0.04,329,WeatherHawk,2013-06-12 17:02:00,
2013-06-12 12:07:00,71.3,58.9,28.93,ESE,102,0.0,-999.0,65,0.00,,,0.04,346,WeatherHawk,2013-06-12 17:07:00,
2013-06-12 12:12:00,72.1,60.6,28.94,ENE,59,2.0,-999.0,67,0.00,,,0.04,336,WeatherHawk,2013-06-12 17:12:00,
2013-06-12 12:17:00,73.1,63.5,28.94,NNE,28,0.0,-999.0,72,0.00,,,0.04,412,WeatherHawk,2013-06-12 17:17:00,
2013-06-12 12:27:00,72.0,61.3,28.93,ENE,71,4.0,-999.0,69,0.00,,,0.04,423,WeatherHawk,2013-06-12 17:27:00,
2013-06-12 12:32:00,71.7,60.5,28.93,ENE,63,6.0,-999.0,68,0.00,,,0.04,487,WeatherHawk,2013-06-12 17:32:00,
2013-06-12 12:42:00,72.7,61.5,28.93,NE,49,5.0,-999.0,68,0.00,,,0.04,481,WeatherHawk,2013-06-12 17:42:00,
2013-06-12 12:47:00,72.1,60.1,28.93,East,84,4.0,-999.0,66,0.00,,,0.04,444,WeatherHawk,2013-06-12 17:47:00,
2013-06-12 12:52:00,72.5,59.7,28.92,ENE,75,4.0,-999.0,64,0.00,,,0.04,586,WeatherHawk,2013-06-12 17:52:00,
2013-06-12 12:57:00,75.7,63.1,28.93,North,0,0.0,-999.0,65,0.00,,,0.04,499,WeatherHawk,2013-06-12 17:57:00,
2013-06-12 13:02:00,72.5,59.6,28.92,ENE,71,6.0,-999.0,64,0.00,,,0.04,415,WeatherHawk,2013-06-12 18:02:00,
2013-06-12 13:07:00,73.2,61.1,28.92,East,85,4.0,-999.0,66,0.00,,,0.04,410,WeatherHawk,2013-06-12 18:07:00,
2013-06-12 13:12:00,73.5,61.4,28.92,ENE,77,5.0,-999.0,66,0.00,,,0.04,623,WeatherHawk,2013-06-12 18:12:00,
2013-06-12 13:17:00,73.6,60.2,28.92,ENE,66,5.0,-999.0,63,0.00,,,0.04,652,WeatherHawk,2013-06-12 18:17:00,
2013-06-12 13:22:00,74.1,60.6,28.92,ENE,73,5.0,-999.0,63,0.00,,,0.04,475,WeatherHawk,2013-06-12 18:22:00,
2013-06-12 13:27:00,74.1,61.6,28.92,ENE,60,4.0,-999.0,65,0.00,,,0.04,329,WeatherHawk,2013-06-12 18:27:00,
2013-06-12 13:32:00,74.4,60.5,28.91,North,10,4.0,-999.0,62,0.00,,,0.04,369,WeatherHawk,2013-06-12 18:32:00,
2013-06-12 13:37:00,73.7,61.6,28.91,NE,50,5.0,-999.0,66,0.00,,,0.04,252,WeatherHawk,2013-06-12 18:37:00,
2013-06-12 13:42:00,75.2,63.9,28.91,NNE,19,2.0,-999.0,68,0.00,,,0.04,219,WeatherHawk,2013-06-12 18:42:00,
2013-06-12 13:47:00,73.8,62.2,28.90,NNE,32,3.0,-999.0,67,0.00,,,0.04,260,WeatherHawk,2013-06-12 18:47:00,
2013-06-12 13:57:00,74.2,62.9,28.90,ENE,72,2.0,-999.0,68,0.00,,,0.04,226,WeatherHawk,2013-06-12 18:57:00,
2013-06-12 14:02:00,74.2,63.8,28.89,North,6,2.0,-999.0,70,0.00,,,0.04,138,WeatherHawk,2013-06-12 19:02:00,
2013-06-12 14:07:00,73.0,62.6,28.89,ENE,74,4.0,-999.0,70,0.00,,,0.04,103,WeatherHawk,2013-06-12 19:07:00,
2013-06-12 14:12:00,72.8,62.9,28.88,ENE,73,4.0,-999.0,71,0.00,,,0.04,110,WeatherHawk,2013-06-12 19:12:00,
2013-06-12 14:17:00,72.8,63.2,28.88,ENE,69,7.0,-999.0,72,0.00,,,0.04,93,WeatherHawk,2013-06-12 19:17:00,
2013-06-12 14:22:00,72.9,64.9,28.88,ENE,64,4.0,-999.0,76,0.00,,,0.04,175,WeatherHawk,2013-06-12 19:22:00,
2013-06-12 14:27:00,72.8,65.1,28.88,ENE,78,6.0,-999.0,77,0.00,,,0.04,195,WeatherHawk,2013-06-12 19:27:00,
2013-06-12 14:32:00,72.4,64.8,28.88,East,79,7.0,-999.0,77,0.00,,,0.04,170,WeatherHawk,2013-06-12 19:32:00,
2013-06-12 14:37:00,72.6,65.7,28.87,ENE,67,7.0,-999.0,79,0.00,,,0.04,191,WeatherHawk,2013-06-12 19:37:00,
2013-06-12 14:42:00,72.7,65.8,28.87,ENE,67,5.0,-999.0,79,0.00,,,0.04,208,WeatherHawk,2013-06-12 19:42:00,
2013-06-12 14:47:00,72.5,64.9,28.86,ENE,71,8.0,-999.0,77,0.00,,,0.04,237,WeatherHawk,2013-06-12 19:47:00,
2013-06-12 14:52:00,73.0,65.4,28.86,ENE,63,8.0,-999.0,77,0.00,,,0.04,426,WeatherHawk,2013-06-12 19:52:00,
2013-06-12 14:57:00,73.2,65.2,28.86,ENE,60,7.0,-999.0,76,0.00,,,0.04,217,WeatherHawk,2013-06-12 19:57:00,
2013-06-12 15:02:00,73.3,65.6,28.86,ENE,69,6.0,-999.0,77,0.00,,,0.04,194,WeatherHawk,2013-06-12 20:02:00,
2013-06-12 15:07:00,73.2,65.5,28.86,ENE,64,5.0,-999.0,77,0.00,,,0.04,177,WeatherHawk,2013-06-12 20:07:00,
2013-06-12 15:12:00,73.0,64.6,28.85,ENE,73,8.0,-999.0,75,0.00,,,0.04,158,WeatherHawk,2013-06-12 20:12:00,
2013-06-12 15:17:00,72.9,64.8,28.85,ENE,69,9.0,-999.0,76,0.00,,,0.04,134,WeatherHawk,2013-06-12 20:17:00,
2013-06-12 15:22:00,73.2,65.6,28.85,ENE,57,4.0,-999.0,77,0.00,,,0.04,110,WeatherHawk,2013-06-12 20:22:00,
2013-06-12 15:27:00,73.0,65.0,28.84,ENE,69,6.0,-999.0,76,0.00,,,0.04,184,WeatherHawk,2013-06-12 20:27:00,
2013-06-12 15:32:00,73.3,64.9,28.82,ENE,67,10.0,-999.0,75,0.00,,,0.04,309,WeatherHawk,2013-06-12 20:32:00,
2013-06-12 15:37:00,73.2,65.2,28.82,ENE,60,7.0,-999.0,76,0.00,,,0.04,150,WeatherHawk,2013-06-12 20:37:00,
2013-06-12 15:42:00,73.0,65.0,28.81,ENE,60,9.0,-999.0,76,0.00,,,0.04,149,WeatherHawk,2013-06-12 20:42:00,
2013-06-12 15:47:00,72.8,65.2,28.80,NE,43,8.0,-999.0,77,0.00,,,0.04,121,WeatherHawk,2013-06-12 20:47:00,
2013-06-12 15:52:00,72.7,65.8,28.80,East,82,5.0,-999.0,79,0.00,,,0.04,43,WeatherHawk,2013-06-12 20:52:00,
2013-06-12 15:57:00,72.3,66.2,28.79,ENE,69,6.0,-999.0,81,0.00,,,0.04,67,WeatherHawk,2013-06-12 20:57:00,
2013-06-12 16:02:00,72.6,66.4,28.79,NNW,342,5.0,-999.0,81,0.00,,,0.04,31,WeatherHawk,2013-06-12 21:02:00,
2013-06-12 16:07:00,72.1,65.9,28.80,NNW,337,7.0,-999.0,81,0.00,,,0.04,13,WeatherHawk,2013-06-12 21:07:00,
2013-06-12 16:12:00,71.9,65.7,28.80,WNW,287,7.0,-999.0,81,0.00,,,0.04,7,WeatherHawk,2013-06-12 21:12:00,
2013-06-12 16:22:00,71.3,66.2,28.80,North,349,8.0,-999.0,84,0.00,,,0.04,14,WeatherHawk,2013-06-12 21:22:00,
2013-06-12 16:27:00,70.2,67.1,28.81,North,0,7.0,-999.0,90,0.04,,,0.08,31,WeatherHawk,2013-06-12 21:27:00,
2013-06-12 16:32:00,69.3,67.2,28.82,NNW,328,3.0,-999.0,93,0.08,,,0.12,5,WeatherHawk,2013-06-12 21:32:00,
2013-06-12 16:37:00,69.5,67.7,28.82,NNE,24,2.0,-999.0,94,0.08,,,0.16,8,WeatherHawk,2013-06-12 21:37:00,
2013-06-12 16:42:00,69.0,67.2,28.81,ENE,77,10.0,-999.0,94,0.08,,,0.20,9,WeatherHawk,2013-06-12 21:42:00,
2013-06-12 16:47:00,68.9,67.5,28.80,East,99,9.0,-999.0,95,0.04,,,0.20,5,WeatherHawk,2013-06-12 21:47:00,
2013-06-12 16:52:00,68.6,67.4,28.80,NNE,31,3.0,-999.0,96,0.00,,,0.20,3,WeatherHawk,2013-06-12 21:52:00,
2013-06-12 16:57:00,68.2,67.3,28.79,NE,49,8.0,-999.0,97,0.00,,,0.20,5,WeatherHawk,2013-06-12 21:57:00,
2013-06-12 17:02:00,67.9,67.9,28.80,NE,49,4.0,-999.0,100,0.08,,,0.28,3,WeatherHawk,2013-06-12 22:02:00,
2013-06-12 17:07:00,68.0,68.0,28.82,West,274,4.0,-999.0,100,0.16,,,0.35,1,WeatherHawk,2013-06-12 22:07:00,
2013-06-12 17:12:00,67.5,67.5,28.81,North,5,4.0,-999.0,100,0.08,,,0.35,4,WeatherHawk,2013-06-12 22:12:00,
2013-06-12 17:17:00,67.5,67.5,28.80,ENE,75,5.0,-999.0,100,0.04,,,0.39,6,WeatherHawk,2013-06-12 22:17:00,
2013-06-12 17:22:00,67.4,67.4,28.79,North,1,5.0,-999.0,100,0.04,,,0.39,8,WeatherHawk,2013-06-12 22:22:00,
2013-06-12 17:27:00,67.1,66.8,28.79,ENE,60,4.0,-999.0,99,0.00,,,0.39,11,WeatherHawk,2013-06-12 22:27:00,
2013-06-12 17:32:00,67.1,66.8,28.78,ENE,62,7.0,-999.0,99,0.00,,,0.39,12,WeatherHawk,2013-06-12 22:32:00,
2013-06-12 17:37:00,67.0,67.0,28.78,NNW,333,2.0,-999.0,100,0.00,,,0.39,18,WeatherHawk,2013-06-12 22:37:00,
2013-06-12 17:42:00,67.3,67.3,28.80,NNE,13,4.0,-999.0,100,0.00,,,0.39,17,WeatherHawk,2013-06-12 22:42:00,
2013-06-12 17:47:00,67.2,67.2,28.79,NE,36,3.0,-999.0,100,0.00,,,0.39,17,WeatherHawk,2013-06-12 22:47:00,
2013-06-12 17:52:00,67.3,67.3,28.77,NE,39,5.0,-999.0,100,0.00,,,0.39,21,WeatherHawk,2013-06-12 22:52:00,
2013-06-12 17:57:00,67.2,67.2,28.78,ENE,65,4.0,-999.0,100,0.00,,,0.39,21,WeatherHawk,2013-06-12 22:57:00,
2013-06-12 18:02:00,67.4,67.4,28.78,NE,37,4.0,-999.0,100,0.00,,,0.39,36,WeatherHawk,2013-06-12 23:02:00,
2013-06-12 18:07:00,67.4,67.4,28.78,NNE,16,2.0,-999.0,100,0.00,,,0.39,25,WeatherHawk,2013-06-12 23:07:00,
2013-06-12 18:12:00,67.4,67.4,28.78,NNE,25,1.0,-999.0,100,0.00,,,0.39,24,WeatherHawk,2013-06-12 23:12:00,
2013-06-12 18:17:00,67.6,67.6,28.79,North,8,0.0,-999.0,100,0.00,,,0.39,21,WeatherHawk,2013-06-12 23:17:00,
2013-06-12 18:22:00,67.6,67.6,28.79,North,3,7.0,-999.0,100,0.00,,,0.39,11,WeatherHawk,2013-06-12 23:22:00,
2013-06-12 18:27:00,67.4,67.4,28.79,NNW,340,5.0,-999.0,100,0.00,,,0.39,9,WeatherHawk,2013-06-12 23:27:00,
2013-06-12 18:32:00,67.3,67.3,28.79,NNE,17,5.0,-999.0,100,0.00,,,0.39,5,WeatherHawk,2013-06-12 23:32:00,
2013-06-12 18:37:00,67.3,67.3,28.78,NE,42,3.0,-999.0,100,0.00,,,0.39,9,WeatherHawk,2013-06-12 23:37:00,
2013-06-12 18:42:00,67.2,67.2,28.79,NNE,21,3.0,-999.0,100,0.04,,,0.43,3,WeatherHawk,2013-06-12 23:42:00,
2013-06-12 18:47:00,67.2,67.2,28.79,NE,43,0.0,-999.0,100,0.04,,,0.43,2,WeatherHawk,2013-06-12 23:47:00,
2013-06-12 18:52:00,67.3,67.3,28.79,North,10,5.0,-999.0,100,0.00,,,0.43,3,WeatherHawk,2013-06-12 23:52:00,
2013-06-12 18:57:00,67.0,66.7,28.80,North,10,5.0,-999.0,99,0.04,,,0.47,3,WeatherHawk,2013-06-12 23:57:00,
2013-06-12 19:02:00,67.0,66.7,28.79,NNW,346,3.0,-999.0,99,0.04,,,0.47,3,WeatherHawk,2013-06-13 00:02:00,
2013-06-12 19:07:00,66.9,66.6,28.81,North,8,5.0,-999.0,99,0.04,,,0.47,2,WeatherHawk,2013-06-13 00:07:00,
2013-06-12 19:12:00,66.5,66.5,28.80,North,8,3.0,-999.0,100,0.00,,,0.47,4,WeatherHawk,2013-06-13 00:12:00,
2013-06-12 19:17:00,66.3,66.3,28.78,East,88,4.0,-999.0,100,0.04,,,0.51,4,WeatherHawk,2013-06-13 00:17:00,
2013-06-12 19:22:00,66.0,66.0,28.78,South,169,4.0,-999.0,100,0.04,,,0.51,5,WeatherHawk,2013-06-13 00:22:00,
2013-06-12 19:27:00,66.1,65.8,28.80,NNW,341,5.0,-999.0,99,0.04,,,0.51,4,WeatherHawk,2013-06-13 00:27:00,
2013-06-12 19:32:00,65.9,65.6,28.80,NE,44,0.0,-999.0,99,0.04,,,0.55,6,WeatherHawk,2013-06-13 00:32:00,
2013-06-12 19:37:00,65.9,65.6,28.81,NNE,24,4.0,-999.0,99,0.04,,,0.55,4,WeatherHawk,2013-06-13 00:37:00,
2013-06-12 19:42:00,65.8,65.2,28.83,NNW,348,3.0,-999.0,98,0.00,,,0.55,4,WeatherHawk,2013-06-13 00:42:00,
2013-06-12 19:47:00,65.7,64.8,28.83,NNW,341,3.0,-999.0,97,0.04,,,0.59,5,WeatherHawk,2013-06-13 00:47:00,
2013-06-12 19:52:00,65.4,63.9,28.83,NNE,14,2.0,-999.0,95,0.04,,,0.59,3,WeatherHawk,2013-06-13 00:52:00,
2013-06-12 19:57:00,65.2,63.4,28.85,North,0,6.0,-999.0,94,0.00,,,0.59,2,WeatherHawk,2013-06-13 00:57:00,
2013-06-12 20:02:00,64.9,63.1,28.85,NNE,24,3.0,-999.0,94,0.00,,,0.59,1,WeatherHawk,2013-06-13 01:02:00,
2013-06-12 20:07:00,64.6,62.9,28.83,ENE,76,12.0,-999.0,94,0.00,,,0.59,1,WeatherHawk,2013-06-13 01:07:00,
2013-06-12 20:12:00,64.2,62.1,28.83,ENE,75,8.0,-999.0,93,0.00,,,0.59,1,WeatherHawk,2013-06-13 01:12:00,
2013-06-12 20:17:00,63.7,62.2,28.83,East,83,5.0,-999.0,95,0.00,,,0.59,0,WeatherHawk,2013-06-13 01:17:00,
2013-06-12 20:22:00,63.8,62.9,28.84,NE,40,2.0,-999.0,97,0.00,,,0.59,0,WeatherHawk,2013-06-13 01:22:00,
2013-06-12 20:27:00,63.5,62.9,28.85,WSW,244,0.0,-999.0,98,0.04,,,0.63,0,WeatherHawk,2013-06-13 01:27:00,
2013-06-12 20:32:00,63.2,62.9,28.85,North,351,4.0,-999.0,99,0.04,,,0.63,0,WeatherHawk,2013-06-13 01:32:00,
2013-06-12 20:37:00,63.0,63.0,28.85,North,0,4.0,-999.0,100,0.04,,,0.67,1,WeatherHawk,2013-06-13 01:37:00,
2013-06-12 20:42:00,62.7,62.7,28.84,NE,45,4.0,-999.0,100,0.04,,,0.67,0,WeatherHawk,2013-06-13 01:42:00,
2013-06-12 20:47:00,62.6,62.6,28.84,NNE,14,5.0,-999.0,100,0.04,,,0.71,0,WeatherHawk,2013-06-13 01:47:00,
2013-06-12 20:52:00,62.3,62.3,28.84,NE,48,7.0,-999.0,100,0.04,,,0.71,0,WeatherHawk,2013-06-13 01:52:00,
2013-06-12 20:57:00,62.1,62.1,28.84,ENE,78,3.0,-999.0,100,0.08,,,0.75,0,WeatherHawk,2013-06-13 01:57:00,
2013-06-12 21:02:00,61.8,61.8,28.84,North,7,10.0,-999.0,100,0.04,,,0.75,0,WeatherHawk,2013-06-13 02:02:00,
2013-06-12 21:07:00,61.8,61.8,28.83,North,0,5.0,-999.0,100,0.08,,,0.79,0,WeatherHawk,2013-06-13 02:07:00,
2013-06-12 21:12:00,61.6,61.6,28.80,NNE,28,4.0,-999.0,100,0.08,,,0.83,0,WeatherHawk,2013-06-13 02:12:00,
2013-06-12 21:17:00,61.4,61.4,28.79,ENE,67,6.0,-999.0,100,0.04,,,0.83,0,WeatherHawk,2013-06-13 02:17:00,
2013-06-12 21:22:00,61.6,61.6,28.79,NNE,30,12.0,-999.0,100,0.04,,,0.87,0,WeatherHawk,2013-06-13 02:22:00,
2013-06-12 21:27:00,61.5,61.5,28.79,SE,127,5.0,-999.0,100,0.04,,,0.87,0,WeatherHawk,2013-06-13 02:27:00,
2013-06-12 21:32:00,61.7,61.7,28.81,NW,324,12.0,-999.0,100,0.04,,,0.87,0,WeatherHawk,2013-06-13 02:32:00,
2013-06-12 21:37:00,61.6,61.6,28.83,ENE,70,4.0,-999.0,100,0.00,,,0.87,0,WeatherHawk,2013-06-13 02:37:00,
2013-06-12 21:42:00,61.6,61.0,28.84,NW,323,2.0,-999.0,98,0.00,,,0.87,0,WeatherHawk,2013-06-13 02:42:00,
2013-06-12 21:47:00,61.5,60.9,28.84,NNW,333,0.0,-999.0,98,0.00,,,0.87,0,WeatherHawk,2013-06-13 02:47:00,
2013-06-12 21:52:00,61.8,60.9,28.85,NNW,328,0.0,-999.0,97,0.00,,,0.87,0,WeatherHawk,2013-06-13 02:52:00,
2013-06-12 21:57:00,61.8,61.0,28.85,North,10,0.0,-999.0,97,0.00,,,0.87,0,WeatherHawk,2013-06-13 02:57:00,
2013-06-12 22:02:00,61.8,60.7,28.85,NNW,339,0.0,-999.0,96,0.00,,,0.87,0,WeatherHawk,2013-06-13 03:02:00,
2013-06-12 22:07:00,61.7,60.8,28.85,ENE,58,0.0,-999.0,97,0.00,,,0.87,0,WeatherHawk,2013-06-13 03:07:00,
2013-06-12 22:12:00,61.6,61.0,28.84,NNE,25,0.0,-999.0,98,0.00,,,0.87,0,WeatherHawk,2013-06-13 03:12:00,
2013-06-12 22:17:00,61.5,61.2,28.84,North,2,0.0,-999.0,99,0.00,,,0.87,0,WeatherHawk,2013-06-13 03:17:00,
2013-06-12 22:22:00,61.5,61.2,28.84,North,351,0.0,-999.0,99,0.00,,,0.87,0,WeatherHawk,2013-06-13 03:22:00,
2013-06-12 22:27:00,61.4,61.4,28.84,WNW,302,1.0,-999.0,100,0.00,,,0.87,0,WeatherHawk,2013-06-13 03:27:00,
2013-06-12 22:32:00,61.2,61.2,28.84,NW,316,0.0,-999.0,100,0.00,,,0.87,0,WeatherHawk,2013-06-13 03:32:00,
2013-06-12 22:37:00,61.4,61.4,28.84,West,263,0.0,-999.0,100,0.00,,,0.87,0,WeatherHawk,2013-06-13 03:37:00,
2013-06-12 22:42:00,61.1,61.1,28.84,West,266,0.0,-999.0,100,0.00,,,0.87,0,WeatherHawk,2013-06-13 03:42:00,
2013-06-12 22:47:00,61.3,61.3,28.85,West,280,4.0,-999.0,100,0.00,,,0.87,0,WeatherHawk,2013-06-13 03:47:00,
2013-06-12 22:52:00,61.4,61.4,28.86,West,274,2.0,-999.0,100,0.00,,,0.87,0,WeatherHawk,2013-06-13 03:52:00,
2013-06-12 22:57:00,61.6,61.6,28.85,NNW,344,4.0,-999.0,100,0.00,,,0.87,0,WeatherHawk,2013-06-13 03:57:00,
2013-06-12 23:02:00,61.9,61.9,28.86,NNW,347,0.0,-999.0,100,0.00,,,0.87,0,WeatherHawk,2013-06-13 04:02:00,
2013-06-12 23:07:00,62.0,62.0,28.86,NW,321,1.0,-999.0,100,0.00,,,0.87,0,WeatherHawk,2013-06-13 04:07:00,
2013-06-12 23:12:00,61.9,61.3,28.87,NNW,348,4.0,-999.0,98,0.00,,,0.87,0,WeatherHawk,2013-06-13 04:12:00,
2013-06-12 23:17:00,61.8,60.6,28.86,North,7,0.0,-999.0,96,0.00,,,0.87,0,WeatherHawk,2013-06-13 04:17:00,
2013-06-12 23:22:00,61.5,60.0,28.87,North,9,4.0,-999.0,95,0.00,,,0.87,0,WeatherHawk,2013-06-13 04:22:00,
2013-06-12 23:27:00,61.4,58.1,28.87,North,8,6.0,-999.0,89,0.00,,,0.87,0,WeatherHawk,2013-06-13 04:27:00,
2013-06-12 23:32:00,61.2,58.3,28.87,NW,321,0.0,-999.0,90,0.00,,,0.87,0,WeatherHawk,2013-06-13 04:32:00,
2013-06-12 23:37:00,60.8,58.1,28.87,West,278,0.0,-999.0,91,0.00,,,0.87,0,WeatherHawk,2013-06-13 04:37:00,
2013-06-12 23:42:00,60.9,58.6,28.88,WNW,297,3.0,-999.0,92,0.00,,,0.87,0,WeatherHawk,2013-06-13 04:42:00,
2013-06-12 23:47:00,60.5,58.4,28.87,North,349,0.0,-999.0,93,0.00,,,0.87,0,WeatherHawk,2013-06-13 04:47:00,
2013-06-12 23:52:00,60.5,58.7,28.88,NW,317,0.0,-999.0,94,0.00,,,0.87,0,WeatherHawk,2013-06-13 04:52:00,
2013-06-12 23:57:00,60.4,58.4,28.87,NW,319,0.0,-999.0,93,0.00,,,0.87,0,WeatherHawk,2013-06-13 04:57:00,